Weather at Wilson's Heliport

Public forecast

Using degrees Celsius for public forecast. Weather courtesy of forecast.io.

Closest aviation weather report (METAR) to Wilson's Heliport

Closest report is Toronto Lester B. Pearson International Airport, 4.6 nm (8.5 km) NW.

2024/05/30 06:00 (retrieved 17 minutes ago)

CYYZ 300600Z 35011KT 15SM SKC 10/04 A3009 RMK SLP192

Closest aviation forecast (TAF) to Wilson's Heliport

Closest forecast is Toronto Lester B. Pearson International Airport, 4.6 nm (8.5 km) NW.

2024/05/30 06:42 (retrieved 0 seconds ago)

TAF CYYZ 300540Z 3006/3112 35012KT P6SM SKC FM301500 35008G18KT P6SM SKC BECMG 3018/3020 34012KT RMK NXT FCST BY 300900Z